Time;durP1;ratioP1;P1;durP2;ratioP2;P2;SDS_P1;SDS_P2;PMS_P1;PMS_P2;Temp;Humidity;BMP_temperature;BMP_pressure;BME280_temperature;BME280_humidity;BME280_pressure;Samples;Min_cycle;Max_cycle;Signal;HPM_P1;HPM_P2
2021/07/20 00:00:06;;;;;;;11.20;8.05;;;;;;;;;;5037802;28;38564;-76
2021/07/20 00:02:37;;;;;;;13.93;8.30;;;;;;;;;;5042224;28;38792;-77
2021/07/20 00:05:07;;;;;;;11.80;7.90;;;;;;;;;;5069351;28;39795;-77
2021/07/20 00:07:34;;;;;;;12.95;7.70;;;;;;;;;;5048962;28;47429;-77
2021/07/20 00:10:01;;;;;;;10.80;7.90;;;;;;;;;;5054129;28;38533;-77
2021/07/20 00:12:27;;;;;;;11.70;8.57;;;;;;;;;;5051429;28;37092;-76
2021/07/20 00:14:53;;;;;;;13.15;8.10;;;;;;;;;;5051069;28;39767;-76
2021/07/20 00:17:22;;;;;;;12.55;7.95;;;;;;;;;;5053662;28;38453;-77
2021/07/20 00:19:50;;;;;;;12.57;7.63;;;;;;;;;;5053794;28;37119;-77
2021/07/20 00:22:17;;;;;;;12.52;8.00;;;;;;;;;;5050783;28;38210;-77
2021/07/20 00:24:43;;;;;;;11.48;7.85;;;;;;;;;;5047365;28;39491;-76
2021/07/20 00:27:09;;;;;;;11.63;7.68;;;;;;;;;;5059409;28;38972;-77
2021/07/20 00:29:36;;;;;;;12.00;7.93;;;;;;;;;;5050219;28;36498;-77
2021/07/20 00:32:02;;;;;;;12.90;8.15;;;;;;;;;;5050266;28;37402;-76
2021/07/20 00:34:28;;;;;;;10.38;8.07;;;;;;;;;;5049487;28;40336;-77
2021/07/20 00:36:55;;;;;;;14.63;9.48;;;;;;;;;;5056029;28;39210;-77
2021/07/20 00:39:21;;;;;;;11.05;8.13;;;;;;;;;;5052422;28;38725;-77
2021/07/20 00:41:47;;;;;;;12.30;7.50;;;;;;;;;;5052982;28;36223;-77
2021/07/20 00:44:14;;;;;;;11.10;8.15;;;;;;;;;;5049159;28;39510;-77
2021/07/20 00:46:40;;;;;;;12.20;8.20;;;;;;;;;;5053796;28;39130;-77
2021/07/20 00:49:06;;;;;;;12.93;7.85;;;;;;;;;;5052892;28;38741;-77
2021/07/20 00:51:33;;;;;;;14.48;8.52;;;;;;;;;;5046856;28;36542;-77
2021/07/20 00:53:59;;;;;;;13.82;8.05;;;;;;;;;;5050305;28;37535;-77
2021/07/20 00:56:26;;;;;;;11.95;7.65;;;;;;;;;;5049250;28;39611;-76
2021/07/20 00:58:52;;;;;;;15.35;8.82;;;;;;;;;;5049077;28;38821;-77
2021/07/20 01:01:19;;;;;;;15.13;7.72;;;;;;;;;;5065554;28;38411;-76
2021/07/20 01:03:45;;;;;;;11.45;8.30;;;;;;;;;;5054521;28;38103;-77
2021/07/20 01:06:13;;;;;;;11.50;8.13;;;;;;;;;;5050440;28;40480;-77
2021/07/20 01:08:40;;;;;;;12.48;8.65;;;;;;;;;;5049374;28;36485;-76
2021/07/20 01:11:07;;;;;;;12.43;8.38;;;;;;;;;;5042227;28;37724;-77
2021/07/20 01:13:37;;;;;;;13.77;8.57;;;;;;;;;;5048814;28;38609;-77
2021/07/20 01:16:03;;;;;;;12.75;8.02;;;;;;;;;;5048408;28;40337;-77
2021/07/20 01:18:30;;;;;;;10.88;7.78;;;;;;;;;;5048855;28;38394;-77
2021/07/20 01:20:56;;;;;;;13.90;9.05;;;;;;;;;;5051039;28;37354;-77
2021/07/20 01:23:40;;;;;;;12.35;8.77;;;;;;;;;;5048099;28;39576;-77
2021/07/20 01:26:06;;;;;;;14.07;7.80;;;;;;;;;;5048822;28;39082;-77
2021/07/20 01:28:33;;;;;;;13.90;9.05;;;;;;;;;;5047075;28;38775;-77
2021/07/20 01:31:05;;;;;;;12.02;8.35;;;;;;;;;;5047561;28;37502;-77
2021/07/20 01:33:32;;;;;;;14.38;8.80;;;;;;;;;;5053355;28;47357;-77
2021/07/20 01:36:00;;;;;;;14.52;9.43;;;;;;;;;;5054654;28;39879;-77
2021/07/20 01:38:28;;;;;;;12.73;8.43;;;;;;;;;;5045182;28;45445;-77
2021/07/20 01:40:56;;;;;;;11.98;8.27;;;;;;;;;;5046884;28;38308;-77
2021/07/20 01:43:23;;;;;;;13.40;8.68;;;;;;;;;;5053688;28;37044;-74
2021/07/20 01:45:50;;;;;;;14.98;9.65;;;;;;;;;;5054841;28;37883;-77
2021/07/20 01:48:17;;;;;;;12.80;8.98;;;;;;;;;;5052629;28;38926;-77
2021/07/20 01:50:44;;;;;;;14.13;9.30;;;;;;;;;;5049840;28;36981;-75
2021/07/20 01:53:11;;;;;;;13.30;9.65;;;;;;;;;;5049351;28;40444;-74
2021/07/20 01:55:37;;;;;;;14.00;9.32;;;;;;;;;;5047497;27;37478;-77
2021/07/20 01:58:05;;;;;;;13.88;9.13;;;;;;;;;;5049696;28;38404;-77
2021/07/20 02:00:31;;;;;;;17.70;9.30;;;;;;;;;;5038664;28;38634;-77
2021/07/20 02:08:27;;;;;;;15.05;9.98;;;;;;;;;;5052655;28;39085;-78
2021/07/20 02:10:57;;;;;;;14.15;9.95;;;;;;;;;;5047005;28;37184;-77
2021/07/20 02:13:24;;;;;;;15.57;10.65;;;;;;;;;;5045348;28;39218;-78
2021/07/20 02:15:51;;;;;;;17.00;9.93;;;;;;;;;;5043708;28;38750;-77
2021/07/20 02:18:19;;;;;;;16.88;10.15;;;;;;;;;;5051650;28;38897;-78
2021/07/20 02:20:46;;;;;;;18.17;10.65;;;;;;;;;;5051635;28;38596;-77
2021/07/20 02:23:13;;;;;;;17.77;11.52;;;;;;;;;;5041118;28;39633;-77
2021/07/20 02:25:40;;;;;;;17.70;9.88;;;;;;;;;;5046299;28;39474;-77
2021/07/20 02:28:07;;;;;;;17.42;10.27;;;;;;;;;;5050758;28;39686;-77
2021/07/20 02:30:34;;;;;;;16.40;10.13;;;;;;;;;;5041342;28;38067;-77
2021/07/20 02:33:01;;;;;;;15.60;9.88;;;;;;;;;;5053338;27;38528;-76
2021/07/20 02:35:28;;;;;;;18.95;10.32;;;;;;;;;;5046818;28;47561;-77
2021/07/20 02:37:55;;;;;;;19.73;10.80;;;;;;;;;;5056919;28;37983;-77
2021/07/20 02:40:23;;;;;;;19.98;10.40;;;;;;;;;;5049322;28;37689;-77
2021/07/20 02:42:51;;;;;;;18.20;11.55;;;;;;;;;;5052935;28;37366;-77
2021/07/20 02:45:17;;;;;;;20.05;11.93;;;;;;;;;;5055781;28;39073;-76
2021/07/20 02:47:44;;;;;;;20.13;12.93;;;;;;;;;;5047528;28;37281;-77
2021/07/20 02:50:15;;;;;;;19.40;12.35;;;;;;;;;;5055607;27;38028;-77
2021/07/20 02:52:43;;;;;;;21.95;14.40;;;;;;;;;;5051663;28;39909;-77
2021/07/20 02:55:11;;;;;;;24.10;13.73;;;;;;;;;;5045404;28;40768;-77
2021/07/20 02:57:38;;;;;;;25.25;16.67;;;;;;;;;;5065454;28;38690;-77
2021/07/20 03:00:05;;;;;;;27.25;17.38;;;;;;;;;;5049576;28;36589;-77
2021/07/20 03:02:35;;;;;;;30.00;19.83;;;;;;;;;;5051509;27;47334;-77
2021/07/20 03:05:03;;;;;;;37.20;21.85;;;;;;;;;;5043994;28;41016;-78
2021/07/20 03:07:29;;;;;;;34.35;21.35;;;;;;;;;;5055073;28;48351;-77
2021/07/20 03:09:55;;;;;;;33.50;21.02;;;;;;;;;;5073027;28;37359;-77
2021/07/20 03:12:23;;;;;;;35.95;21.38;;;;;;;;;;5054130;27;39100;-77
2021/07/20 03:14:51;;;;;;;34.30;22.30;;;;;;;;;;5053724;28;39449;-77
2021/07/20 03:17:18;;;;;;;35.10;22.20;;;;;;;;;;5047291;27;38474;-77
2021/07/20 03:19:46;;;;;;;34.40;23.75;;;;;;;;;;5049809;28;37685;-78
2021/07/20 03:22:13;;;;;;;36.00;23.42;;;;;;;;;;5050805;28;40800;-77
2021/07/20 03:24:42;;;;;;;34.83;22.88;;;;;;;;;;5054204;28;39861;-77
2021/07/20 03:27:09;;;;;;;34.83;23.40;;;;;;;;;;5045989;28;39397;-77
2021/07/20 03:29:42;;;;;;;36.05;23.77;;;;;;;;;;5048756;28;35752;-77
2021/07/20 03:32:15;;;;;;;38.72;24.58;;;;;;;;;;5048924;28;39077;-77
2021/07/20 03:34:42;;;;;;;41.05;25.15;;;;;;;;;;5051981;28;39628;-77
2021/07/20 03:37:09;;;;;;;39.15;24.95;;;;;;;;;;5047713;28;39085;-77
2021/07/20 03:39:36;;;;;;;40.25;23.80;;;;;;;;;;5048629;28;37462;-77
2021/07/20 03:42:02;;;;;;;41.95;25.42;;;;;;;;;;5066388;28;39622;-77
2021/07/20 03:44:30;;;;;;;44.80;25.63;;;;;;;;;;5050682;28;39085;-77
2021/07/20 03:46:57;;;;;;;37.72;23.63;;;;;;;;;;5062831;28;37633;-77
2021/07/20 03:49:26;;;;;;;39.85;22.90;;;;;;;;;;5048776;28;37371;-77
2021/07/20 03:51:52;;;;;;;37.13;22.52;;;;;;;;;;5049490;28;40790;-77
2021/07/20 03:54:21;;;;;;;37.60;22.95;;;;;;;;;;5054738;28;39595;-77
2021/07/20 03:56:49;;;;;;;36.08;21.58;;;;;;;;;;5052567;28;38965;-77
2021/07/20 03:59:16;;;;;;;34.63;21.67;;;;;;;;;;5054148;28;37189;-77
2021/07/20 04:01:45;;;;;;;39.97;23.02;;;;;;;;;;5039496;28;37413;-77
2021/07/20 04:04:14;;;;;;;38.08;22.40;;;;;;;;;;5038253;28;39478;-77
2021/07/20 04:06:41;;;;;;;37.28;22.80;;;;;;;;;;5045866;28;38183;-77
2021/07/20 04:09:08;;;;;;;35.85;21.35;;;;;;;;;;5048887;28;36713;-77
2021/07/20 04:11:35;;;;;;;38.15;22.45;;;;;;;;;;5048657;28;40280;-77
2021/07/20 04:14:03;;;;;;;34.83;20.40;;;;;;;;;;5050359;28;39406;-77
2021/07/20 04:16:29;;;;;;;36.78;22.50;;;;;;;;;;5045064;28;47078;-77
2021/07/20 04:18:56;;;;;;;38.88;21.35;;;;;;;;;;5044033;28;37850;-77
2021/07/20 04:21:22;;;;;;;36.97;22.35;;;;;;;;;;5046904;28;39010;-77
2021/07/20 04:23:50;;;;;;;34.28;20.70;;;;;;;;;;5046231;28;38975;-77
2021/07/20 04:26:18;;;;;;;34.95;20.83;;;;;;;;;;5046404;28;38926;-77
2021/07/20 04:28:44;;;;;;;34.95;20.98;;;;;;;;;;5049780;28;37393;-77
2021/07/20 04:31:12;;;;;;;39.38;22.00;;;;;;;;;;5048059;28;39555;-77
2021/07/20 04:33:38;;;;;;;38.00;19.98;;;;;;;;;;5044408;28;39403;-77
2021/07/20 04:36:05;;;;;;;46.10;22.58;;;;;;;;;;5052251;28;37502;-77
2021/07/20 04:38:33;;;;;;;38.95;20.60;;;;;;;;;;5041297;28;38470;-77
2021/07/20 04:41:00;;;;;;;39.33;21.50;;;;;;;;;;5047128;28;39147;-77
2021/07/20 04:43:27;;;;;;;34.80;19.13;;;;;;;;;;5046963;28;39434;-77
2021/07/20 04:45:56;;;;;;;31.27;19.83;;;;;;;;;;5046029;28;38578;-77
2021/07/20 04:48:23;;;;;;;31.23;18.75;;;;;;;;;;5043999;28;37871;-77
2021/07/20 04:50:50;;;;;;;36.95;19.90;;;;;;;;;;5047159;27;39858;-77
2021/07/20 04:53:17;;;;;;;31.42;19.30;;;;;;;;;;5047768;28;38066;-77
2021/07/20 04:55:44;;;;;;;34.08;18.70;;;;;;;;;;5048728;28;39132;-78
2021/07/20 04:58:11;;;;;;;30.42;17.33;;;;;;;;;;5048805;28;37871;-77
2021/07/20 05:00:37;;;;;;;31.25;19.48;;;;;;;;;;5051768;28;38347;-77
2021/07/20 05:03:05;;;;;;;33.20;19.10;;;;;;;;;;5044466;28;39717;-77
2021/07/20 05:05:38;;;;;;;30.35;17.83;;;;;;;;;;5054600;28;39074;-77
2021/07/20 05:08:07;;;;;;;27.00;17.80;;;;;;;;;;5045863;28;36539;-76
2021/07/20 05:10:37;;;;;;;28.33;17.83;;;;;;;;;;5050756;28;39718;-77
2021/07/20 05:13:07;;;;;;;26.92;17.15;;;;;;;;;;5052753;28;40126;-76
2021/07/20 05:15:34;;;;;;;28.25;17.27;;;;;;;;;;5043695;28;38713;-77
2021/07/20 05:18:01;;;;;;;30.88;18.50;;;;;;;;;;5053560;28;38152;-77
2021/07/20 05:20:29;;;;;;;26.02;16.85;;;;;;;;;;5046312;28;48573;-77
2021/07/20 05:22:59;;;;;;;33.60;17.90;;;;;;;;;;5046561;28;39173;-77
2021/07/20 05:25:25;;;;;;;27.10;16.52;;;;;;;;;;5047275;28;37047;-77
2021/07/20 05:27:55;;;;;;;26.23;16.20;;;;;;;;;;5045995;28;36514;-77
2021/07/20 05:30:23;;;;;;;23.17;14.60;;;;;;;;;;5042549;28;39783;-77
2021/07/20 05:32:49;;;;;;;22.70;14.57;;;;;;;;;;5041603;28;39580;-77
2021/07/20 05:35:17;;;;;;;21.83;14.45;;;;;;;;;;5043119;28;36463;-77
2021/07/20 05:37:44;;;;;;;26.35;14.98;;;;;;;;;;5046408;28;38186;-77
2021/07/20 05:40:15;;;;;;;23.38;13.93;;;;;;;;;;5047536;28;38984;-77
2021/07/20 05:42:42;;;;;;;21.85;14.00;;;;;;;;;;5052294;28;38026;-77
2021/07/20 05:45:09;;;;;;;23.05;13.68;;;;;;;;;;5049852;28;39285;-77
2021/07/20 05:47:36;;;;;;;22.98;14.23;;;;;;;;;;5051801;28;36748;-77
2021/07/20 05:50:05;;;;;;;20.15;13.48;;;;;;;;;;5052454;28;39677;-77
2021/07/20 05:52:32;;;;;;;18.15;12.90;;;;;;;;;;5047288;28;47247;-77
2021/07/20 05:54:58;;;;;;;24.58;13.40;;;;;;;;;;5045179;28;39596;-77
2021/07/20 05:57:25;;;;;;;17.85;11.88;;;;;;;;;;5047661;28;37856;-78
2021/07/20 05:59:52;;;;;;;18.60;11.57;;;;;;;;;;5066221;28;40278;-77
2021/07/20 06:02:19;;;;;;;16.63;11.55;;;;;;;;;;5046846;28;40334;-77
2021/07/20 06:04:46;;;;;;;19.33;11.75;;;;;;;;;;5053639;28;41360;-77
2021/07/20 06:07:13;;;;;;;17.90;11.30;;;;;;;;;;5069299;28;38493;-76
2021/07/20 06:09:42;;;;;;;17.88;11.20;;;;;;;;;;5053936;28;39250;-76
2021/07/20 06:12:08;;;;;;;14.13;9.75;;;;;;;;;;5054431;28;40151;-76
2021/07/20 06:14:36;;;;;;;13.70;9.18;;;;;;;;;;5057940;28;39158;-77
2021/07/20 06:17:03;;;;;;;13.20;8.68;;;;;;;;;;5052374;28;37498;-76
2021/07/20 06:19:29;;;;;;;14.65;9.25;;;;;;;;;;5055672;28;39237;-76
2021/07/20 06:21:56;;;;;;;13.40;9.80;;;;;;;;;;5055065;28;39238;-76
2021/07/20 06:24:23;;;;;;;12.25;9.15;;;;;;;;;;5052707;28;37975;-77
2021/07/20 06:26:49;;;;;;;12.50;8.88;;;;;;;;;;5052062;28;36006;-77
2021/07/20 06:29:16;;;;;;;11.63;8.20;;;;;;;;;;5050724;28;38802;-77
2021/07/20 06:31:44;;;;;;;12.50;8.48;;;;;;;;;;5053245;28;40744;-77
2021/07/20 06:34:14;;;;;;;12.02;8.27;;;;;;;;;;5053348;28;37225;-77
2021/07/20 06:36:43;;;;;;;13.65;9.43;;;;;;;;;;5056662;28;37335;-77
2021/07/20 06:39:10;;;;;;;10.48;7.07;;;;;;;;;;5053717;28;37873;-77
2021/07/20 06:41:37;;;;;;;12.63;8.15;;;;;;;;;;5050754;28;38066;-77
2021/07/20 06:44:04;;;;;;;10.15;7.38;;;;;;;;;;5059791;28;38329;-77
2021/07/20 06:46:31;;;;;;;10.60;7.90;;;;;;;;;;5055157;28;37821;-77
2021/07/20 06:48:58;;;;;;;10.05;7.28;;;;;;;;;;5064935;28;40221;-77
2021/07/20 06:51:25;;;;;;;10.00;7.60;;;;;;;;;;5062564;28;38646;-77
2021/07/20 06:53:52;;;;;;;11.70;7.63;;;;;;;;;;5061083;28;37315;-77
2021/07/20 06:56:21;;;;;;;9.27;7.18;;;;;;;;;;5062054;27;36264;-77
2021/07/20 06:58:47;;;;;;;11.50;7.07;;;;;;;;;;5066992;28;40486;-77
2021/07/20 07:01:15;;;;;;;13.18;7.22;;;;;;;;;;5066843;28;39091;-78
2021/07/20 07:03:46;;;;;;;9.65;7.28;;;;;;;;;;5056963;28;37845;-77
2021/07/20 07:06:13;;;;;;;10.98;7.32;;;;;;;;;;5056840;28;35691;-77
2021/07/20 07:08:40;;;;;;;9.73;7.15;;;;;;;;;;5060095;28;38942;-77
2021/07/20 07:11:06;;;;;;;9.93;6.97;;;;;;;;;;5060113;28;38982;-77
2021/07/20 07:13:34;;;;;;;9.55;7.30;;;;;;;;;;5057998;28;39245;-77
2021/07/20 07:16:02;;;;;;;11.73;7.38;;;;;;;;;;5061231;28;36143;-77
2021/07/20 07:18:31;;;;;;;11.40;7.78;;;;;;;;;;5056671;28;47041;-78
2021/07/20 07:20:58;;;;;;;9.95;7.20;;;;;;;;;;5058526;28;37796;-77
2021/07/20 07:23:26;;;;;;;9.70;7.00;;;;;;;;;;5065791;28;37440;-76
2021/07/20 07:25:57;;;;;;;9.98;7.47;;;;;;;;;;5065811;28;36969;-77
2021/07/20 07:28:24;;;;;;;10.80;6.90;;;;;;;;;;5061576;28;38975;-76
2021/07/20 07:30:51;;;;;;;9.35;6.70;;;;;;;;;;5066851;28;40092;-76
2021/07/20 07:33:19;;;;;;;9.25;7.10;;;;;;;;;;5064241;28;38176;-78
2021/07/20 07:35:46;;;;;;;9.63;6.80;;;;;;;;;;5067701;28;37199;-76
2021/07/20 07:38:14;;;;;;;9.07;7.05;;;;;;;;;;5058977;28;38776;-76
2021/07/20 07:40:41;;;;;;;9.45;6.72;;;;;;;;;;5068623;28;39669;-76
2021/07/20 07:43:07;;;;;;;10.57;7.35;;;;;;;;;;5062503;28;38026;-76
2021/07/20 07:45:34;;;;;;;8.20;6.22;;;;;;;;;;5059723;28;35987;-77
2021/07/20 07:48:01;;;;;;;7.82;5.97;;;;;;;;;;5076933;28;39708;-76
2021/07/20 07:50:28;;;;;;;9.60;7.18;;;;;;;;;;5054179;28;47890;-74
2021/07/20 07:52:55;;;;;;;8.20;6.50;;;;;;;;;;5061977;28;39347;-74
2021/07/20 07:55:23;;;;;;;10.20;6.95;;;;;;;;;;5063369;28;37012;-76
2021/07/20 07:57:50;;;;;;;8.68;6.88;;;;;;;;;;5060721;28;38878;-76
2021/07/20 08:00:17;;;;;;;7.70;6.22;;;;;;;;;;5057421;28;39750;-76
2021/07/20 08:02:51;;;;;;;10.02;6.88;;;;;;;;;;5068681;28;37404;-74
2021/07/20 08:05:21;;;;;;;8.43;6.35;;;;;;;;;;5068428;28;37664;-74
2021/07/20 08:07:47;;;;;;;7.85;5.97;;;;;;;;;;5077724;27;38477;-74
2021/07/20 08:10:16;;;;;;;7.93;6.35;;;;;;;;;;5065487;27;39120;-75
2021/07/20 08:12:45;;;;;;;9.25;6.78;;;;;;;;;;5064978;28;38847;-74
2021/07/20 08:15:13;;;;;;;10.32;7.43;;;;;;;;;;5055144;28;36009;-74
2021/07/20 08:17:39;;;;;;;8.68;6.57;;;;;;;;;;5056389;28;37974;-74
2021/07/20 08:20:07;;;;;;;10.63;7.00;;;;;;;;;;5071208;28;39013;-74
2021/07/20 08:22:34;;;;;;;7.85;5.93;;;;;;;;;;5061375;28;37372;-74
2021/07/20 08:25:26;;;;;;;7.63;5.40;;;;;;;;;;5085921;28;35797;-74
2021/07/20 08:27:57;;;;;;;7.60;6.13;;;;;;;;;;5047196;28;48920;-74
2021/07/20 08:30:24;;;;;;;9.38;6.50;;;;;;;;;;5084671;27;38745;-73
2021/07/20 08:32:53;;;;;;;7.68;6.10;;;;;;;;;;5069782;28;39682;-74
2021/07/20 08:35:21;;;;;;;9.00;6.43;;;;;;;;;;5073591;28;37423;-74
2021/07/20 08:37:49;;;;;;;7.95;6.50;;;;;;;;;;5058599;28;39903;-74
2021/07/20 08:40:27;;;;;;;8.55;6.40;;;;;;;;;;5079773;27;39281;-74
2021/07/20 08:43:12;;;;;;;7.85;5.72;;;;;;;;;;5067401;28;38902;-74
2021/07/20 08:45:49;;;;;;;8.63;6.30;;;;;;;;;;5056838;28;47292;-74
2021/07/20 08:48:22;;;;;;;8.23;5.85;;;;;;;;;;5068736;28;39023;-74
2021/07/20 08:50:59;;;;;;;10.73;6.97;;;;;;;;;;5064745;28;38700;-75
2021/07/20 08:53:45;;;;;;;9.45;6.57;;;;;;;;;;5055757;28;40259;-75
2021/07/20 08:56:12;;;;;;;8.50;6.20;;;;;;;;;;5053221;28;37794;-75
2021/07/20 08:58:43;;;;;;;7.28;5.85;;;;;;;;;;5054611;28;39560;-75
2021/07/20 09:01:12;;;;;;;7.70;6.00;;;;;;;;;;5056449;28;38774;-76
2021/07/20 09:03:43;;;;;;;10.32;5.70;;;;;;;;;;5056840;28;37544;-74
2021/07/20 09:06:15;;;;;;;8.80;6.30;;;;;;;;;;5059529;28;37470;-75
2021/07/20 09:08:54;;;;;;;8.48;6.45;;;;;;;;;;5058566;28;39869;-75
2021/07/20 09:11:30;;;;;;;8.73;6.43;;;;;;;;;;5055884;28;38940;-74
2021/07/20 09:14:15;;;;;;;7.05;5.80;;;;;;;;;;5062085;28;39574;-75
2021/07/20 09:16:46;;;;;;;8.30;6.38;;;;;;;;;;5056567;28;48136;-75
2021/07/20 09:19:20;;;;;;;7.97;6.68;;;;;;;;;;5069942;28;39915;-76
2021/07/20 09:21:49;;;;;;;7.93;6.30;;;;;;;;;;5069053;28;40288;-75
2021/07/20 09:24:23;;;;;;;7.30;6.40;;;;;;;;;;5078524;28;38208;-75
2021/07/20 09:26:56;;;;;;;7.57;5.85;;;;;;;;;;5065301;28;37030;-75
2021/07/20 09:29:25;;;;;;;9.25;6.53;;;;;;;;;;5064295;28;39501;-76
2021/07/20 09:32:07;;;;;;;8.95;6.40;;;;;;;;;;5064405;27;38884;-76
2021/07/20 09:34:45;;;;;;;8.35;6.68;;;;;;;;;;5071149;28;47143;-76
2021/07/20 09:37:16;;;;;;;7.22;6.30;;;;;;;;;;5047875;28;36563;-76
2021/07/20 09:40:01;;;;;;;7.93;6.43;;;;;;;;;;5070095;28;39472;-76
2021/07/20 09:42:42;;;;;;;8.65;6.60;;;;;;;;;;5064699;28;39609;-76
2021/07/20 09:45:20;;;;;;;7.97;6.55;;;;;;;;;;5075402;28;38475;-76
2021/07/20 09:47:50;;;;;;;8.45;6.72;;;;;;;;;;5066694;28;37045;-76
2021/07/20 09:50:17;;;;;;;9.23;6.55;;;;;;;;;;5061390;28;38901;-76
2021/07/20 09:52:52;;;;;;;10.80;7.32;;;;;;;;;;5067677;28;40709;-77
2021/07/20 09:55:22;;;;;;;8.88;7.28;;;;;;;;;;5075524;28;40633;-76
2021/07/20 09:58:16;;;;;;;8.68;7.10;;;;;;;;;;5066796;28;37218;-75
2021/07/20 10:00:51;;;;;;;12.07;6.82;;;;;;;;;;5049142;28;46919;-76
2021/07/20 10:03:31;;;;;;;14.35;7.90;;;;;;;;;;5063532;28;39526;-76
2021/07/20 10:05:57;;;;;;;9.95;7.70;;;;;;;;;;5063234;28;40786;-76
2021/07/20 10:08:40;;;;;;;11.48;6.85;;;;;;;;;;5067204;28;36700;-76
2021/07/20 10:11:09;;;;;;;7.93;6.35;;;;;;;;;;5058104;28;39975;-76
2021/07/20 10:13:46;;;;;;;8.05;6.30;;;;;;;;;;5068329;28;39013;-76
2021/07/20 10:16:19;;;;;;;9.40;7.30;;;;;;;;;;5072324;28;39315;-76
2021/07/20 10:18:58;;;;;;;11.00;7.05;;;;;;;;;;5064690;28;38165;-76
2021/07/20 10:21:26;;;;;;;8.48;6.38;;;;;;;;;;5069657;28;39534;-76
2021/07/20 10:24:05;;;;;;;11.20;7.03;;;;;;;;;;5069664;28;38771;-76
2021/07/20 10:26:38;;;;;;;8.07;6.50;;;;;;;;;;5065971;28;48872;-76
2021/07/20 10:29:12;;;;;;;9.95;7.38;;;;;;;;;;5060301;28;35771;-76
2021/07/20 10:31:38;;;;;;;9.52;7.63;;;;;;;;;;5067022;28;40719;-76
2021/07/20 10:34:08;;;;;;;10.15;8.27;;;;;;;;;;5071803;28;38422;-76
2021/07/20 10:36:43;;;;;;;11.18;7.45;;;;;;;;;;5062397;28;37196;-76
2021/07/20 10:39:11;;;;;;;10.00;6.45;;;;;;;;;;5053458;28;37801;-75
2021/07/20 10:42:06;;;;;;;9.77;7.07;;;;;;;;;;5058438;28;39376;-76
2021/07/20 10:44:54;;;;;;;9.55;7.90;;;;;;;;;;5035243;28;48830;-76
2021/07/20 10:47:21;;;;;;;9.75;6.82;;;;;;;;;;5061006;28;39279;-76
2021/07/20 10:49:53;;;;;;;10.40;7.63;;;;;;;;;;5075293;28;36896;-76
2021/07/20 10:52:28;;;;;;;9.52;7.20;;;;;;;;;;5063667;27;40136;-76
2021/07/20 10:55:02;;;;;;;9.40;7.22;;;;;;;;;;5076520;28;38885;-76
2021/07/20 10:57:33;;;;;;;8.60;6.97;;;;;;;;;;5069343;27;38071;-76
2021/07/20 11:00:02;;;;;;;10.10;6.88;;;;;;;;;;5060793;28;37713;-76
2021/07/20 11:02:35;;;;;;;7.57;6.47;;;;;;;;;;5060847;28;47559;-76
2021/07/20 11:05:01;;;;;;;9.13;7.00;;;;;;;;;;5069986;28;39069;-76
2021/07/20 11:07:46;;;;;;;8.82;6.80;;;;;;;;;;5063431;28;39515;-76
2021/07/20 11:10:33;;;;;;;10.10;7.88;;;;;;;;;;5074121;28;37061;-76
2021/07/20 11:13:07;;;;;;;11.50;7.88;;;;;;;;;;5054480;28;39777;-76
2021/07/20 11:15:35;;;;;;;10.02;7.72;;;;;;;;;;5053719;28;47143;-77
2021/07/20 11:18:05;;;;;;;10.73;7.60;;;;;;;;;;5061346;28;38800;-77
2021/07/20 11:20:32;;;;;;;8.32;7.25;;;;;;;;;;5064842;28;49124;-76
2021/07/20 11:22:59;;;;;;;9.60;7.47;;;;;;;;;;5068637;28;39049;-76
2021/07/20 11:25:26;;;;;;;9.88;8.02;;;;;;;;;;5062590;28;39052;-76
2021/07/20 11:27:53;;;;;;;9.27;7.10;;;;;;;;;;5062351;28;38561;-76
2021/07/20 11:30:20;;;;;;;10.55;8.32;;;;;;;;;;5063756;28;36813;-76
2021/07/20 11:33:05;;;;;;;9.35;6.93;;;;;;;;;;5062613;28;38845;-77
2021/07/20 11:35:35;;;;;;;10.45;8.10;;;;;;;;;;5060168;28;49306;-76
2021/07/20 11:38:06;;;;;;;9.73;7.78;;;;;;;;;;5059639;28;40013;-77
2021/07/20 11:40:51;;;;;;;10.32;8.10;;;;;;;;;;5060365;28;38503;-76
2021/07/20 11:43:21;;;;;;;9.23;7.15;;;;;;;;;;5056197;28;39837;-76
2021/07/20 11:45:56;;;;;;;9.05;7.32;;;;;;;;;;5061135;28;38566;-75
2021/07/20 11:48:24;;;;;;;9.45;7.60;;;;;;;;;;5051128;28;39008;-76
2021/07/20 11:51:00;;;;;;;10.40;8.07;;;;;;;;;;5056320;28;38959;-76
2021/07/20 11:53:45;;;;;;;8.88;6.80;;;;;;;;;;5063533;28;40233;-75
2021/07/20 11:56:28;;;;;;;12.35;7.82;;;;;;;;;;5061258;27;38452;-75
2021/07/20 11:59:13;;;;;;;9.45;6.97;;;;;;;;;;5059703;28;38274;-75
2021/07/20 12:01:58;;;;;;;11.63;7.22;;;;;;;;;;5065549;28;48285;-75
2021/07/20 12:04:44;;;;;;;9.00;7.05;;;;;;;;;;5059427;28;39623;-75
2021/07/20 12:07:29;;;;;;;10.43;7.35;;;;;;;;;;5057216;28;40110;-76
2021/07/20 12:10:17;;;;;;;10.13;7.40;;;;;;;;;;5062599;28;40300;-75
2021/07/20 12:12:46;;;;;;;10.15;7.93;;;;;;;;;;5060341;28;49689;-76
2021/07/20 12:15:13;;;;;;;9.35;6.95;;;;;;;;;;5063055;28;40348;-75
2021/07/20 12:17:40;;;;;;;8.90;6.78;;;;;;;;;;5059364;28;40601;-75
2021/07/20 12:20:08;;;;;;;10.13;7.28;;;;;;;;;;5071562;28;38554;-75
2021/07/20 12:22:34;;;;;;;8.50;6.53;;;;;;;;;;5063309;28;38012;-75
2021/07/20 12:25:05;;;;;;;9.43;6.78;;;;;;;;;;5066374;28;39097;-75
2021/07/20 12:27:31;;;;;;;8.25;6.65;;;;;;;;;;5058714;28;47033;-76
2021/07/20 12:29:59;;;;;;;7.57;5.85;;;;;;;;;;5056697;28;38868;-75
2021/07/20 12:32:30;;;;;;;9.32;6.43;;;;;;;;;;5056740;28;37142;-75
2021/07/20 12:34:58;;;;;;;8.35;6.15;;;;;;;;;;5063070;28;40118;-76
2021/07/20 12:37:24;;;;;;;9.30;6.22;;;;;;;;;;5066479;28;39769;-75
2021/07/20 12:39:55;;;;;;;9.38;6.20;;;;;;;;;;5063862;28;39693;-75
2021/07/20 12:42:22;;;;;;;9.10;6.95;;;;;;;;;;5065004;28;37072;-75
2021/07/20 12:45:06;;;;;;;7.57;6.38;;;;;;;;;;5073012;28;40607;-76
2021/07/20 12:47:40;;;;;;;8.93;6.65;;;;;;;;;;5065148;28;46988;-75
2021/07/20 12:50:07;;;;;;;10.63;7.38;;;;;;;;;;5061510;28;38768;-77
2021/07/20 12:52:41;;;;;;;9.93;7.05;;;;;;;;;;5059861;28;37236;-76
2021/07/20 12:55:21;;;;;;;10.77;7.30;;;;;;;;;;5059170;27;38974;-76
2021/07/20 12:57:57;;;;;;;7.60;6.05;;;;;;;;;;5077189;28;39600;-76
2021/07/20 13:00:25;;;;;;;11.88;7.40;;;;;;;;;;5067291;28;39299;-76
2021/07/20 13:02:52;;;;;;;7.18;6.13;;;;;;;;;;5061152;28;37629;-77
2021/07/20 13:05:19;;;;;;;10.20;7.10;;;;;;;;;;5062609;28;38788;-77
2021/07/20 13:07:47;;;;;;;11.05;7.35;;;;;;;;;;5078161;28;39423;-77
2021/07/20 13:10:14;;;;;;;9.55;7.35;;;;;;;;;;5078204;28;39249;-79
2021/07/20 13:12:41;;;;;;;7.95;6.53;;;;;;;;;;5086279;28;38512;-79
2021/07/20 13:15:14;;;;;;;11.25;7.10;;;;;;;;;;5072612;28;41125;-79
2021/07/20 13:17:41;;;;;;;8.93;6.70;;;;;;;;;;5066405;28;38373;-79
2021/07/20 13:20:08;;;;;;;7.68;6.63;;;;;;;;;;5073363;28;38770;-79
2021/07/20 13:22:37;;;;;;;7.65;6.80;;;;;;;;;;5078593;28;36813;-79
2021/07/20 13:25:05;;;;;;;8.88;6.47;;;;;;;;;;5082899;28;38238;-78
2021/07/20 13:27:36;;;;;;;8.82;7.20;;;;;;;;;;5074967;28;47011;-79
2021/07/20 13:30:03;;;;;;;9.73;6.85;;;;;;;;;;5063663;28;40057;-79
2021/07/20 13:32:29;;;;;;;8.02;6.55;;;;;;;;;;5070882;28;47144;-79
2021/07/20 13:34:55;;;;;;;9.43;6.50;;;;;;;;;;5079324;28;37973;-79
2021/07/20 13:37:22;;;;;;;7.72;6.03;;;;;;;;;;5075270;28;39342;-79
2021/07/20 13:39:50;;;;;;;10.32;7.35;;;;;;;;;;5068750;28;38808;-79
2021/07/20 13:42:19;;;;;;;9.48;7.38;;;;;;;;;;5069892;28;37118;-80
2021/07/20 13:44:47;;;;;;;9.63;7.15;;;;;;;;;;5078057;28;39002;-79
2021/07/20 13:47:15;;;;;;;7.80;6.25;;;;;;;;;;5084102;28;39305;-79
2021/07/20 13:49:42;;;;;;;9.63;7.18;;;;;;;;;;5074293;28;38445;-79
2021/07/20 13:52:16;;;;;;;10.88;7.15;;;;;;;;;;5080633;28;37295;-80
2021/07/20 13:54:44;;;;;;;10.35;7.57;;;;;;;;;;5084174;28;38819;-80
2021/07/20 13:57:11;;;;;;;8.48;6.95;;;;;;;;;;5072045;28;39444;-79
2021/07/20 13:59:40;;;;;;;9.48;6.82;;;;;;;;;;5071920;28;37437;-79
2021/07/20 14:02:09;;;;;;;8.02;6.28;;;;;;;;;;5061274;28;37484;-79
2021/07/20 14:04:37;;;;;;;8.95;6.63;;;;;;;;;;5087085;28;39841;-81
2021/07/20 14:07:04;;;;;;;8.02;5.90;;;;;;;;;;5101224;28;39336;-80
2021/07/20 14:09:33;;;;;;;9.55;6.47;;;;;;;;;;5099598;28;38191;-82
2021/07/20 14:12:02;;;;;;;10.15;6.88;;;;;;;;;;5104766;28;37724;-82
2021/07/20 14:14:39;;;;;;;8.38;6.28;;;;;;;;;;5089029;28;49899;-81
2021/07/20 14:17:06;;;;;;;7.78;6.15;;;;;;;;;;5084109;28;38351;-79
2021/07/20 14:19:32;;;;;;;9.95;6.40;;;;;;;;;;5086758;28;37571;-80
2021/07/20 14:21:59;;;;;;;6.68;5.60;;;;;;;;;;5085817;28;37249;-80
2021/07/20 14:24:28;;;;;;;10.27;7.03;;;;;;;;;;5088643;28;40068;-80
2021/07/20 14:26:57;;;;;;;10.05;6.90;;;;;;;;;;5091678;28;37749;-80
2021/07/20 14:29:29;;;;;;;9.80;6.40;;;;;;;;;;5083864;28;39875;-80
2021/07/20 14:32:12;;;;;;;7.53;6.03;;;;;;;;;;5085867;28;36750;-79
2021/07/20 14:34:50;;;;;;;7.75;6.30;;;;;;;;;;5094233;28;48617;-80
2021/07/20 14:37:35;;;;;;;6.90;5.97;;;;;;;;;;5078026;28;37987;-80
2021/07/20 14:40:05;;;;;;;8.85;6.40;;;;;;;;;;5080249;28;37618;-79
2021/07/20 14:42:35;;;;;;;6.70;5.53;;;;;;;;;;5089996;28;48578;-80
2021/07/20 14:45:06;;;;;;;7.57;5.50;;;;;;;;;;5088817;28;38963;-80
2021/07/20 14:47:33;;;;;;;8.05;6.25;;;;;;;;;;5084141;28;47780;-80
2021/07/20 14:50:08;;;;;;;8.30;6.30;;;;;;;;;;5080413;28;39663;-80